Time;durP1;ratioP1;P1;durP2;ratioP2;P2;SDS_P1;SDS_P2;PMS_P1;PMS_P2;Temp;Humidity;BMP_temperature;BMP_pressure;BME280_temperature;BME280_humidity;BME280_pressure;Samples;Min_cycle;Max_cycle;Signal;HPM_P1;HPM_P2
2022/05/25 00:01:48;;;;;;;0.20;0.00;;;15.30;99.90;;;;;;26395674;22;20170;-75
2022/05/25 00:11:53;;;;;;;0.20;0.00;;;15.20;99.90;;;;;;26396416;22;20519;-73
2022/05/25 00:21:57;;;;;;;0.20;0.00;;;15.10;99.90;;;;;;26394353;22;20166;-77
2022/05/25 00:32:02;;;;;;;0.20;0.00;;;15.00;99.90;;;;;;26425321;22;20182;-77
2022/05/25 00:42:07;;;;;;;0.20;0.00;;;14.80;99.90;;;;;;26393211;22;20229;-75
2022/05/25 00:52:14;;;;;;;0.20;0.00;;;14.90;99.90;;;;;;26394798;22;20212;-77
2022/05/25 01:02:18;;;;;;;0.20;0.00;;;15.20;99.90;;;;;;26424102;22;20161;-76
2022/05/25 01:12:41;;;;;;;0.20;0.10;;;15.30;99.90;;;;;;26393911;22;20198;-79
2022/05/25 01:23:28;;;;;;;0.20;0.00;;;15.00;99.90;;;;;;26396612;22;20158;-79
2022/05/25 01:33:40;;;;;;;0.20;0.00;;;14.60;99.90;;;;;;26403007;22;20182;-78
2022/05/25 01:43:49;;;;;;;0.20;0.00;;;14.80;99.90;;;;;;26406360;22;20153;-76
2022/05/25 01:53:59;;;;;;;0.20;0.00;;;14.80;99.90;;;;;;26375282;22;20205;-77
2022/05/25 02:04:21;;;;;;;0.20;0.10;;;14.70;99.90;;;;;;26428833;22;20154;-79
2022/05/25 02:14:37;;;;;;;0.20;0.00;;;14.60;99.90;;;;;;26400660;22;20184;-77
2022/05/25 02:24:48;;;;;;;0.20;0.00;;;14.60;99.90;;;;;;26435902;22;20170;-78
2022/05/25 02:34:55;;;;;;;0.20;0.00;;;14.70;99.90;;;;;;26439271;22;20188;-77
2022/05/25 02:44:59;;;;;;;0.20;0.00;;;14.80;99.90;;;;;;26383809;22;20185;-77
2022/05/25 02:55:06;;;;;;;0.20;0.00;;;14.80;99.90;;;;;;26383443;22;20209;-77
2022/05/25 03:05:12;;;;;;;0.20;0.00;;;14.80;99.90;;;;;;26381205;22;20194;-77
2022/05/25 03:15:20;;;;;;;0.20;0.00;;;14.80;99.90;;;;;;26409725;22;20280;-75
2022/05/25 03:25:24;;;;;;;0.20;0.00;;;14.80;99.90;;;;;;26436733;22;20163;-75
2022/05/25 03:35:29;;;;;;;0.20;0.03;;;14.60;99.90;;;;;;26432532;22;20194;-76
2022/05/25 03:45:34;;;;;;;0.20;0.00;;;14.60;99.90;;;;;;26436128;22;20166;-75
2022/05/25 03:55:39;;;;;;;0.20;0.00;;;14.60;99.90;;;;;;26433989;22;20198;-76
2022/05/25 04:05:44;;;;;;;0.20;0.00;;;14.60;99.90;;;;;;26404259;22;20248;-76
2022/05/25 04:15:49;;;;;;;0.20;0.00;;;14.40;99.90;;;;;;26405765;22;20197;-75
2022/05/25 04:25:54;;;;;;;2.90;2.80;;;14.60;99.90;;;;;;26400397;22;20162;-76
2022/05/25 04:36:00;;;;;;;0.20;0.00;;;14.40;99.90;;;;;;26404309;22;20189;-75
2022/05/25 04:46:09;;;;;;;0.20;0.00;;;14.50;99.90;;;;;;26402080;22;20191;-77
2022/05/25 05:06:35;;;;;;;0.20;0.00;;;14.50;99.90;;;;;;26405113;22;20773;-76
2022/05/25 05:16:41;;;;;;;0.20;0.00;;;14.90;99.90;;;;;;26430494;22;20271;-77
2022/05/25 05:26:46;;;;;;;0.20;0.00;;;14.90;99.90;;;;;;26429029;22;20166;-77
2022/05/25 05:36:55;;;;;;;0.20;0.00;;;15.10;99.90;;;;;;26428932;22;20186;-76
2022/05/25 05:47:02;;;;;;;0.20;0.00;;;15.10;99.90;;;;;;26426733;22;20196;-83
2022/05/25 05:57:07;;;;;;;0.20;0.00;;;15.30;99.90;;;;;;26423343;22;20194;-76
2022/05/25 06:07:11;;;;;;;0.20;0.00;;;15.50;99.90;;;;;;26424097;22;20201;-76
2022/05/25 06:27:38;;;;;;;0.20;0.00;;;15.60;99.90;;;;;;26396100;22;20166;-79
2022/05/25 06:37:43;;;;;;;0.20;0.00;;;15.90;99.90;;;;;;26395277;22;20186;-80
2022/05/25 06:47:47;;;;;;;0.20;0.10;;;16.00;99.90;;;;;;26397620;22;20169;-70
2022/05/25 06:57:52;;;;;;;0.20;0.00;;;16.30;99.90;;;;;;26422416;22;20229;-78
2022/05/25 07:07:56;;;;;;;0.20;0.00;;;16.20;99.90;;;;;;26428014;22;20194;-79
2022/05/25 07:18:02;;;;;;;0.20;0.10;;;16.70;99.90;;;;;;26429853;22;20186;-75
2022/05/25 07:28:09;;;;;;;0.20;0.10;;;16.60;99.90;;;;;;26402105;22;20206;-77
2022/05/25 07:38:23;;;;;;;0.20;0.10;;;17.00;99.90;;;;;;26401620;22;20170;-79
2022/05/25 07:48:27;;;;;;;0.20;0.00;;;16.80;99.90;;;;;;26404475;22;20154;-69
2022/05/25 07:58:32;;;;;;;0.20;0.10;;;17.20;99.90;;;;;;26427081;22;20198;-71
2022/05/25 08:08:37;;;;;;;0.20;0.10;;;16.90;99.90;;;;;;26396758;22;20182;-71
2022/05/25 08:18:42;;;;;;;0.20;0.00;;;17.20;99.90;;;;;;26390915;22;20186;-71
2022/05/25 08:28:46;;;;;;;0.20;0.00;;;16.90;99.90;;;;;;26389614;22;20170;-71
2022/05/25 08:38:52;;;;;;;0.20;0.00;;;16.40;99.90;;;;;;26390292;22;20197;-71
2022/05/25 08:48:57;;;;;;;0.20;0.00;;;16.20;99.90;;;;;;26389246;22;20154;-72
2022/05/25 08:59:17;;;;;;;0.20;0.10;;;16.70;99.90;;;;;;26388233;22;20215;-71
2022/05/25 09:09:26;;;;;;;0.20;0.00;;;16.70;99.90;;;;;;26416766;22;20197;-71
2022/05/25 09:19:35;;;;;;;0.20;0.00;;;16.90;99.90;;;;;;26413917;22;20207;-77
2022/05/25 09:29:41;;;;;;;0.20;0.10;;;17.00;99.90;;;;;;26419158;22;20146;-76
2022/05/25 09:39:47;;;;;;;0.20;0.00;;;17.10;99.90;;;;;;26416338;22;20198;-73
2022/05/25 09:49:55;;;;;;;0.20;0.00;;;17.30;99.90;;;;;;26415934;22;20158;-73
2022/05/25 10:00:03;;;;;;;0.20;0.00;;;17.30;99.90;;;;;;26389696;22;20197;-73
2022/05/25 10:10:10;;;;;;;0.20;0.00;;;17.60;99.90;;;;;;26385868;22;20194;-73
2022/05/25 10:20:25;;;;;;;0.20;0.10;;;17.70;99.90;;;;;;26389075;22;20208;-72
2022/05/25 10:40:55;;;;;;;0.20;0.10;;;18.50;99.90;;;;;;26416437;22;20151;-73
2022/05/25 10:51:03;;;;;;;0.20;0.00;;;18.40;99.90;;;;;;26392186;22;20191;-69
2022/05/25 11:01:34;;;;;;;0.20;0.10;;;18.30;99.90;;;;;;26392826;22;20177;-73
2022/05/25 12:25:51;;;;;;;0.20;0.10;;;20.80;99.90;;;;;;26395828;22;20194;-76
2022/05/25 12:35:56;;;;;;;0.20;0.00;;;20.20;99.90;;;;;;26415712;22;20185;-75
2022/05/25 12:56:34;;;;;;;0.20;0.00;;;21.00;99.90;;;;;;26418193;22;21292;-75
2022/05/25 13:07:19;;;;;;;0.20;0.00;;;20.50;99.90;;;;;;26416942;22;20174;-75
2022/05/25 13:17:45;;;;;;;0.20;0.00;;;20.10;99.90;;;;;;26415123;22;20202;-75
2022/05/25 13:28:15;;;;;;;0.20;0.10;;;20.00;99.90;;;;;;26389275;22;20189;-75
2022/05/25 13:38:38;;;;;;;0.20;0.10;;;19.50;99.90;;;;;;26413130;22;20182;-75
2022/05/25 13:48:53;;;;;;;0.20;0.10;;;19.60;99.90;;;;;;26412351;22;20150;-75
2022/05/25 13:59:00;;;;;;;0.20;0.00;;;20.00;99.90;;;;;;26385715;22;20215;-74
2022/05/25 14:19:30;;;;;;;0.20;0.10;;;20.50;99.90;;;;;;26410305;22;20190;-74
2022/05/25 14:29:39;;;;;;;0.20;0.10;;;21.20;99.90;;;;;;26405922;22;20190;-72
2022/05/25 14:39:45;;;;;;;0.20;0.00;;;21.90;99.90;;;;;;26409015;22;20338;-74
2022/05/25 14:50:07;;;;;;;0.20;0.00;;;22.80;99.90;;;;;;26407710;22;20244;-75
2022/05/25 15:00:15;;;;;;;0.20;0.10;;;22.50;99.90;;;;;;26405300;22;20240;-74
2022/05/25 15:10:20;;;;;;;0.20;0.00;;;22.40;99.90;;;;;;26379685;22;20154;-75
2022/05/25 15:20:26;;;;;;;0.20;0.00;;;22.80;99.90;;;;;;26381589;22;20201;-75
2022/05/25 15:30:41;;;;;;;0.20;0.00;;;22.60;99.90;;;;;;26410043;22;20190;-71
2022/05/25 15:40:46;;;;;;;0.20;0.00;;;24.00;99.90;;;;;;26412897;22;20199;-74
2022/05/25 15:50:54;;;;;;;0.20;0.10;;;22.50;99.90;;;;;;26389635;22;20171;-73
2022/05/25 16:00:59;;;;;;;0.20;0.00;;;23.00;99.90;;;;;;26388862;22;20186;-73
2022/05/25 16:11:05;;;;;;;0.20;0.00;;;24.30;99.90;;;;;;26388373;22;20162;-73
2022/05/25 16:21:10;;;;;;;0.20;0.00;;;24.00;99.90;;;;;;26417094;22;20255;-74
2022/05/25 16:31:16;;;;;;;0.20;0.00;;;23.30;99.90;;;;;;26383085;22;20190;-74
2022/05/25 16:41:25;;;;;;;0.20;0.00;;;22.80;99.90;;;;;;26410534;22;20300;-70
2022/05/25 16:51:30;;;;;;;0.20;0.00;;;23.80;99.90;;;;;;26418506;22;20182;-73
2022/05/25 17:01:35;;;;;;;0.20;0.00;;;23.60;99.90;;;;;;26419946;22;20304;-71
2022/05/25 17:11:41;;;;;;;0.20;0.00;;;23.60;99.90;;;;;;26419201;22;20166;-75
2022/05/25 17:21:46;;;;;;;0.20;0.00;;;23.10;99.90;;;;;;26394461;22;20166;-76
2022/05/25 17:31:55;;;;;;;0.20;0.00;;;23.10;99.90;;;;;;26394172;22;20186;-75
2022/05/25 17:42:01;;;;;;;0.20;0.00;;;23.00;99.90;;;;;;26369652;22;20158;-76
2022/05/25 17:52:09;;;;;;;0.20;0.00;;;22.50;99.90;;;;;;26416732;22;20178;-74
2022/05/25 18:02:14;;;;;;;0.20;0.10;;;22.00;99.90;;;;;;26417095;22;20162;-73
2022/05/25 18:12:20;;;;;;;0.20;0.00;;;21.50;99.90;;;;;;26394064;22;20276;-75
2022/05/25 18:22:25;;;;;;;0.20;0.10;;;21.80;99.90;;;;;;26397202;22;20335;-71
2022/05/25 18:32:30;;;;;;;0.30;0.30;;;21.10;99.90;;;;;;26420784;22;20226;-79
2022/05/25 18:42:34;;;;;;;0.20;0.00;;;21.00;99.90;;;;;;26425899;22;20221;-76
2022/05/25 18:52:40;;;;;;;0.20;0.10;;;20.90;99.90;;;;;;26424382;22;20219;-75
2022/05/25 19:02:44;;;;;;;0.20;0.00;;;20.70;99.90;;;;;;26427784;22;20158;-77
2022/05/25 19:12:52;;;;;;;0.20;0.10;;;20.70;99.90;;;;;;26430908;22;20246;-69
2022/05/25 19:23:00;;;;;;;0.20;0.00;;;20.20;99.90;;;;;;26376703;22;20158;-76
2022/05/25 19:33:06;;;;;;;0.20;0.00;;;20.10;99.90;;;;;;26299486;22;20238;-77
2022/05/25 19:43:15;;;;;;;0.20;0.10;;;19.70;99.90;;;;;;26271744;22;20167;-75
2022/05/25 19:53:25;;;;;;;0.20;0.10;;;19.60;99.90;;;;;;26296332;22;20269;-75
2022/05/25 20:03:31;;;;;;;0.20;0.10;;;19.40;99.90;;;;;;26272432;22;20171;-74
2022/05/25 20:13:39;;;;;;;0.20;0.10;;;19.40;99.90;;;;;;26241904;22;20262;-75
2022/05/25 20:23:43;;;;;;;0.20;0.10;;;19.20;99.90;;;;;;26306463;22;20205;-76
2022/05/25 20:33:49;;;;;;;0.20;0.00;;;19.30;99.90;;;;;;26425018;22;20186;-76
2022/05/25 20:43:53;;;;;;;0.20;0.10;;;19.40;99.90;;;;;;26394180;22;20173;-76
2022/05/25 20:53:59;;;;;;;0.20;0.10;;;19.70;99.90;;;;;;26421354;22;20194;-75
2022/05/25 21:04:03;;;;;;;0.20;0.03;;;19.80;99.90;;;;;;26423519;22;20158;-74
2022/05/25 21:14:09;;;;;;;0.20;0.10;;;19.70;99.90;;;;;;26420891;22;20182;-77
2022/05/25 21:24:13;;;;;;;0.20;0.00;;;19.70;99.90;;;;;;26395023;22;20209;-78
2022/05/25 21:34:18;;;;;;;0.20;0.00;;;19.60;99.90;;;;;;26391774;22;20246;-78
2022/05/25 21:44:23;;;;;;;0.20;0.10;;;19.70;99.90;;;;;;26420508;22;20181;-77
2022/05/25 21:54:28;;;;;;;0.20;0.10;;;19.60;99.90;;;;;;26420807;22;20483;-80
2022/05/25 22:04:33;;;;;;;0.20;0.10;;;19.90;99.90;;;;;;26420347;22;20197;-78
2022/05/25 22:14:38;;;;;;;0.20;0.10;;;19.90;99.90;;;;;;26393687;22;20194;-78
2022/05/25 22:24:42;;;;;;;0.20;0.10;;;19.90;99.90;;;;;;26420212;22;20185;-83
2022/05/25 22:34:50;;;;;;;0.20;0.10;;;19.90;99.90;;;;;;26394681;22;20190;-79
2022/05/25 22:44:56;;;;;;;0.20;0.10;;;20.20;99.90;;;;;;26428043;22;20173;-80
2022/05/25 22:55:01;;;;;;;0.20;0.10;;;20.10;99.90;;;;;;26428932;22;20190;-78
2022/05/25 23:05:06;;;;;;;0.20;0.10;;;19.90;99.90;;;;;;26428363;22;20181;-77
2022/05/25 23:15:14;;;;;;;0.20;0.10;;;20.00;99.90;;;;;;26372903;22;20182;-78
2022/05/25 23:25:18;;;;;;;0.20;0.10;;;20.00;99.90;;;;;;26398726;22;20198;-77
2022/05/25 23:35:23;;;;;;;0.20;0.10;;;20.00;99.90;;;;;;26425796;22;20186;-80
2022/05/25 23:45:29;;;;;;;0.20;0.10;;;19.90;99.90;;;;;;26430756;22;20188;-78
2022/05/25 23:55:34;;;;;;;0.20;0.10;;;19.50;99.90;;;;;;26407045;22;20193;-79
